createdAt,value
2019-01-02T02:18:06.736Z,76.78
2019-01-02T02:19:06.694Z,75.95
2019-01-02T02:20:06.658Z,76.26
2019-01-02T02:21:06.719Z,76.16
2019-01-02T02:22:06.600Z,75.98
2019-01-02T02:23:06.623Z,76.16
2019-01-02T02:24:06.582Z,76.06
2019-01-02T02:25:06.592Z,76.47
2019-01-02T02:26:06.558Z,76.37
2019-01-02T02:27:06.544Z,76.26
2019-01-02T02:28:06.549Z,76.19
2019-01-02T02:29:06.538Z,76.26
2019-01-02T02:30:06.513Z,77.40
2019-01-02T02:31:06.500Z,77.09
2019-01-02T02:32:06.505Z,76.47
2019-01-02T02:33:06.522Z,76.57
2019-01-02T02:34:06.471Z,77.44
2019-01-02T02:35:06.465Z,75.98
2019-01-02T02:36:06.451Z,76.09
2019-01-02T02:37:06.439Z,77.72
2019-01-02T02:38:06.443Z,77.23
2019-01-02T02:39:06.435Z,76.92
2019-01-02T02:40:06.408Z,76.61
2019-01-02T02:41:06.405Z,77.33
2019-01-02T02:42:06.386Z,77.82
2019-01-02T02:43:06.374Z,77.23
2019-01-02T02:44:06.386Z,77.23
2019-01-02T02:45:06.357Z,77.61
2019-01-02T02:46:06.346Z,76.89
2019-01-02T02:47:06.343Z,76.81
2019-01-02T02:48:06.330Z,76.68
2019-01-02T02:49:06.337Z,76.92
2019-01-02T02:50:06.301Z,76.40
2019-01-02T02:51:06.291Z,76.37
2019-01-02T02:52:06.286Z,76.61
2019-01-02T02:53:06.271Z,76.40
2019-01-02T02:54:06.281Z,77.30
2019-01-02T02:55:06.250Z,76.92
2019-01-02T02:56:06.254Z,78.03
2019-01-02T02:57:06.229Z,77.92
2019-01-02T02:58:06.222Z,77.51
2019-01-02T02:59:06.232Z,77.51
2019-01-02T03:00:06.193Z,77.72
2019-01-02T03:01:06.188Z,77.72
2019-01-02T03:02:06.173Z,77.82
2019-01-02T03:03:06.167Z,77.40
2019-01-02T03:04:06.176Z,77.30
2019-01-02T03:05:06.165Z,78.34
2019-01-02T03:06:06.132Z,79.06
2019-01-02T03:07:06.124Z,78.44
2019-01-02T03:08:06.112Z,77.82
2019-01-02T03:09:06.127Z,77.72
2019-01-02T03:10:06.092Z,78.34
2019-01-02T03:11:06.087Z,78.23
2019-01-02T03:12:06.071Z,77.82
2019-01-02T03:13:06.060Z,79.06
2019-01-02T03:14:06.659Z,78.44
2019-01-02T03:15:06.042Z,79.06
2019-01-02T03:16:06.025Z,78.65
2019-01-02T03:17:06.016Z,78.34
2019-01-02T03:18:06.007Z,78.34
2019-01-02T03:19:06.021Z,78.96
2019-01-02T03:20:06.007Z,78.03
2019-01-02T03:21:05.975Z,78.23
2019-01-02T03:22:05.964Z,78.65
2019-01-02T03:23:05.973Z,78.75
2019-01-02T03:24:05.943Z,78.44
2019-01-02T03:25:05.949Z,78.23
2019-01-02T03:26:05.923Z,78.75
2019-01-02T03:27:05.913Z,79.27
2019-01-02T03:28:05.897Z,79.17
2019-01-02T03:29:05.886Z,79.48
2019-01-02T03:30:05.906Z,79.27
2019-01-02T03:31:05.865Z,79.17
2019-01-02T03:32:05.875Z,78.86
2019-01-02T03:33:05.846Z,79.79
2019-01-02T03:34:05.834Z,79.48
2019-01-02T03:35:05.842Z,79.06
2019-01-02T03:36:05.810Z,78.65
2019-01-02T03:37:05.804Z,79.06
2019-01-02T03:38:05.793Z,78.75
2019-01-02T03:39:05.781Z,78.13
2019-01-02T03:40:05.789Z,79.17
2019-01-02T03:41:05.771Z,78.23
2019-01-02T03:42:05.748Z,79.48
2019-01-02T03:43:05.737Z,79.17
2019-01-02T03:44:05.730Z,78.34
2019-01-02T03:45:05.743Z,78.03
2019-01-02T03:46:05.706Z,78.23
2019-01-02T03:47:05.698Z,78.72
2019-01-02T03:48:05.697Z,77.78
2019-01-02T03:49:05.673Z,78.72
2019-01-02T03:50:05.695Z,78.41
2019-01-02T03:51:05.650Z,78.34
2019-01-02T03:52:05.642Z,77.58
2019-01-02T03:53:05.632Z,78.34
2019-01-02T03:54:05.621Z,77.99
2019-01-02T03:55:05.635Z,78.41
2019-01-02T03:56:05.601Z,78.20
2019-01-02T03:57:05.595Z,78.09
2019-01-02T03:58:05.583Z,78.20
2019-01-02T03:59:05.577Z,78.75
2019-01-02T04:00:05.582Z,77.72
2019-01-02T04:01:05.548Z,77.89
2019-01-02T04:02:05.538Z,78.03
2019-01-02T04:03:05.527Z,78.30
2019-01-02T04:04:05.519Z,78.23
2019-01-02T04:05:05.531Z,78.09
2019-01-02T04:06:05.498Z,77.51
2019-01-02T04:07:05.486Z,77.99
2019-01-02T04:08:05.479Z,77.72
2019-01-02T04:09:05.466Z,77.82
2019-01-02T04:10:05.454Z,77.78
2019-01-02T04:11:05.465Z,77.89
2019-01-02T04:12:05.430Z,78.20
2019-01-02T04:13:05.425Z,78.23
2019-01-02T04:14:05.411Z,78.09
2019-01-02T04:15:05.400Z,77.58
2019-01-02T04:16:05.412Z,77.37
2019-01-02T04:17:05.400Z,77.68
2019-01-02T04:18:05.367Z,78.20
2019-01-02T04:19:05.356Z,77.30
2019-01-02T04:20:05.349Z,77.37
2019-01-02T04:21:05.353Z,77.37
2019-01-02T04:22:05.327Z,76.33
2019-01-02T04:23:05.316Z,76.75
2019-01-02T04:24:05.310Z,76.64
2019-01-02T04:25:05.296Z,77.37
2019-01-02T04:26:05.315Z,77.37
2019-01-02T04:27:05.282Z,77.37
2019-01-02T04:28:05.260Z,77.68
2019-01-02T04:29:05.252Z,77.06
2019-01-02T04:30:05.239Z,77.16
2019-01-02T04:31:05.259Z,76.64
2019-01-02T04:32:05.220Z,77.37
2019-01-02T04:33:05.208Z,77.47
2019-01-02T04:34:05.202Z,76.43
2019-01-02T04:35:05.202Z,76.33
2019-01-02T04:36:05.179Z,77.26
2019-01-02T04:37:05.187Z,76.64
2019-01-02T04:38:05.156Z,76.64
2019-01-02T04:39:05.143Z,76.85
2019-01-02T04:40:05.135Z,77.26
2019-01-02T04:41:05.120Z,77.06
2019-01-02T04:42:05.133Z,77.26
2019-01-02T04:43:05.106Z,77.68
2019-01-02T04:44:05.098Z,78.13
2019-01-02T04:45:05.092Z,78.41
2019-01-02T04:46:05.072Z,78.20
2019-01-02T04:47:05.090Z,77.58
2019-01-02T04:48:05.055Z,77.68
2019-01-02T04:49:05.040Z,78.82
2019-01-02T04:50:05.045Z,78.82
2019-01-02T04:51:05.019Z,79.34
2019-01-02T04:52:05.030Z,79.06
2019-01-02T04:53:04.997Z,78.51
2019-01-02T04:54:04.991Z,78.03
2019-01-02T04:55:04.979Z,77.82
2019-01-02T04:56:04.970Z,77.58
2019-01-02T04:57:04.982Z,77.47
2019-01-02T04:58:04.944Z,77.89
2019-01-02T04:59:04.945Z,78.09
2019-01-02T05:00:04.926Z,78.09
2019-01-02T05:01:04.918Z,77.78
2019-01-02T05:02:04.904Z,77.61
2019-01-02T05:03:04.921Z,77.37
2019-01-02T05:04:04.896Z,77.78
2019-01-02T05:05:04.877Z,77.99
2019-01-02T05:06:04.861Z,77.89
2019-01-02T05:07:04.853Z,77.78
2019-01-02T05:08:04.882Z,78.09
2019-01-02T05:09:04.832Z,78.09
2019-01-02T05:10:04.821Z,78.09
2019-01-02T05:11:04.812Z,78.20
2019-01-02T05:12:04.821Z,78.09
2019-01-02T05:13:04.806Z,77.78
2019-01-02T05:14:04.785Z,78.13
2019-01-02T05:15:04.764Z,77.20
2019-01-02T05:16:04.765Z,78.09
2019-01-02T05:17:04.746Z,78.20
2019-01-02T05:18:04.757Z,77.61
2019-01-02T05:19:04.722Z,77.40
2019-01-02T05:20:04.716Z,77.26
2019-01-02T05:21:04.712Z,77.68
2019-01-02T05:22:04.691Z,78.23
2019-01-02T05:23:04.682Z,78.51
2019-01-02T05:24:04.697Z,78.30
2019-01-02T05:25:04.672Z,78.20
2019-01-02T05:26:04.650Z,77.47
2019-01-02T05:27:04.636Z,78.55
2019-01-02T05:28:04.635Z,77.16
2019-01-02T05:29:04.637Z,77.58
2019-01-02T05:30:04.627Z,77.30
2019-01-02T05:31:04.597Z,77.37
2019-01-02T05:32:04.587Z,78.20
2019-01-02T05:33:04.596Z,78.30
2019-01-02T05:34:04.578Z,78.30
2019-01-02T05:35:04.556Z,77.78
2019-01-02T05:36:04.542Z,79.13
2019-01-02T05:37:04.534Z,77.78
2019-01-02T05:38:04.565Z,77.47
2019-01-02T05:39:04.516Z,77.89
2019-01-02T05:40:04.501Z,78.20
2019-01-02T05:41:04.492Z,78.41
2019-01-02T05:42:04.482Z,78.09
2019-01-02T05:43:04.474Z,77.68
2019-01-02T05:44:04.663Z,78.20
2019-01-02T05:45:04.450Z,78.23
2019-01-02T05:46:04.437Z,78.23
2019-01-02T05:47:04.430Z,78.09
2019-01-02T05:48:04.438Z,77.92
2019-01-02T05:49:04.408Z,78.03
2019-01-02T05:50:04.398Z,77.72
2019-01-02T05:51:04.389Z,77.72
2019-01-02T05:52:04.380Z,77.82
2019-01-02T05:53:04.397Z,78.23
2019-01-02T05:54:04.727Z,77.82
2019-01-02T05:55:04.592Z,77.82
2019-01-02T05:56:05.362Z,79.17
2019-01-02T05:57:04.662Z,78.99
2019-01-02T05:58:04.852Z,78.68
2019-01-02T05:59:04.653Z,78.99
2019-01-02T06:00:05.456Z,79.61
2019-01-02T06:01:05.185Z,79.30
2019-01-02T06:02:04.351Z,79.58
2019-01-02T06:03:04.462Z,79.41
2019-01-02T06:04:12.316Z,78.89
2019-01-02T06:05:11.474Z,79.10
2019-01-02T06:06:04.576Z,79.20
2019-01-02T06:11:46.337Z,79.38
2019-01-02T06:12:46.283Z,79.38
2019-01-02T06:13:46.314Z,79.69
2019-01-02T06:14:46.213Z,80.41
2019-01-02T06:15:46.225Z,80.21
2019-01-02T06:18:24.367Z,80.10
2019-01-02T06:19:24.365Z,79.58
2019-01-02T06:21:44.685Z,80.41
2019-01-02T06:22:55.389Z,80.31
2019-01-02T06:23:44.691Z,80.52
2019-01-02T06:26:28.512Z,80.41
2019-01-02T06:27:37.209Z,80.55
2019-01-02T06:28:28.415Z,80.35
2019-01-02T06:30:48.994Z,80.52
2019-01-02T06:34:06.138Z,80.21
2019-01-02T06:36:41.561Z,80.14
2019-01-02T06:37:51.338Z,79.61
2019-01-02T06:38:41.553Z,78.99
2019-01-02T06:40:51.381Z,79.83
2019-01-02T06:43:21.890Z,79.41
2019-01-02T06:44:37.633Z,80.24
2019-01-02T06:45:21.812Z,80.24
2019-01-02T06:46:34.952Z,79.61
2019-01-02T06:47:21.839Z,79.30
2019-01-02T06:48:21.776Z,79.93
2019-01-02T06:49:33.200Z,80.45
2019-01-02T06:50:21.747Z,80.69
2019-01-02T06:51:33.957Z,80.35
2019-01-02T06:52:21.730Z,80.35
2019-01-02T06:53:21.707Z,79.83
2019-01-02T06:54:33.922Z,80.07
2019-01-02T06:55:21.700Z,80.18
2019-01-02T06:58:44.670Z,80.38
2019-01-02T06:59:44.542Z,80.18
2019-01-02T07:01:54.338Z,80.69
2019-01-02T07:02:54.275Z,81.11
2019-01-02T07:04:02.677Z,81.11
2019-01-02T07:04:54.310Z,81.42
2019-01-02T07:07:13.721Z,81.01
2019-01-02T07:09:33.580Z,81.01
2019-01-02T07:11:43.281Z,81.63
2019-01-02T07:12:43.226Z,81.32
2019-01-02T07:13:43.200Z,81.11
2019-01-02T07:17:19.964Z,81.21
2019-01-02T07:18:19.970Z,81.32
2019-01-02T07:20:45.102Z,81.52
2019-01-02T07:21:52.638Z,82.01
2019-01-02T07:22:45.101Z,82.35
2019-01-02T07:23:53.256Z,82.32
2019-01-02T07:24:45.046Z,82.73
2019-01-02T07:27:09.243Z,82.73
2019-01-02T07:28:09.253Z,83.87
2019-01-02T07:30:45.740Z,84.12
2019-01-02T07:31:59.884Z,83.98
2019-01-02T07:32:45.615Z,83.98
2019-01-02T07:35:21.156Z,83.67
2019-01-02T07:36:21.119Z,84.39
2019-01-02T07:38:40.079Z,84.22
2019-01-02T07:39:51.764Z,84.95
2019-01-02T07:40:39.965Z,84.33
2019-01-02T07:41:49.839Z,84.43
2019-01-02T07:42:39.994Z,84.08
2019-01-02T07:44:52.579Z,84.08
2019-01-02T07:47:15.257Z,83.29
2019-01-02T07:48:15.106Z,83.91
2019-01-02T07:49:22.631Z,83.67
2019-01-02T07:50:15.104Z,84.50
2019-01-02T07:51:22.630Z,84.33
2019-01-02T07:52:15.112Z,83.67
2019-01-02T07:53:22.595Z,84.22
2019-01-02T07:54:15.043Z,84.08
2019-01-02T07:55:15.033Z,83.77
2019-01-02T07:56:22.548Z,83.25
2019-01-02T07:57:14.998Z,83.87
2019-01-02T07:58:22.513Z,84.08
2019-01-02T07:59:15.001Z,84.08
2019-01-02T08:00:22.560Z,83.67
2019-01-02T08:01:14.964Z,83.87
2019-01-02T08:02:22.495Z,84.29
2019-01-02T08:03:14.978Z,84.19
2019-01-02T08:04:14.931Z,83.77
2019-01-02T08:05:14.912Z,84.08
2019-01-02T08:06:14.927Z,83.87
2019-01-02T08:07:22.426Z,84.19
2019-01-02T08:08:14.874Z,83.87
2019-01-02T08:09:22.427Z,83.77
2019-01-02T08:10:14.904Z,84.19
2019-01-02T08:11:14.832Z,82.73
2019-01-02T08:12:22.407Z,83.56
2019-01-02T08:13:14.910Z,83.67
2019-01-02T08:14:22.350Z,83.87
2019-01-02T08:15:14.871Z,83.77
2019-01-02T08:16:22.355Z,83.98
2019-01-02T08:17:14.771Z,83.77
2019-01-02T08:18:22.337Z,83.67
2019-01-02T08:19:14.794Z,83.98
2019-01-02T08:20:14.798Z,83.46
2019-01-02T08:21:22.293Z,83.46
2019-01-02T08:22:14.726Z,83.67
2019-01-02T08:23:22.276Z,83.98
2019-01-02T08:24:14.698Z,83.77
2019-01-02T08:25:14.715Z,83.04
2019-01-02T08:27:24.443Z,84.19
2019-01-02T08:28:31.949Z,84.08
2019-01-02T08:29:24.426Z,83.94
2019-01-02T08:30:32.015Z,83.46
2019-01-02T08:31:24.387Z,83.73
2019-01-02T08:32:24.394Z,83.87
2019-01-02T08:33:31.914Z,83.56
2019-01-02T08:34:24.350Z,84.08
2019-01-02T08:35:31.929Z,84.19
2019-01-02T08:36:24.343Z,83.77
2019-01-02T08:37:31.870Z,84.19
2019-01-02T08:38:24.338Z,84.39
2019-01-02T08:39:24.294Z,84.19
2019-01-02T08:40:31.868Z,84.81
2019-01-02T08:41:24.275Z,83.87
2019-01-02T08:42:31.842Z,84.46
2019-01-02T08:43:24.254Z,84.36
2019-01-02T08:44:32.733Z,84.39
2019-01-02T08:45:24.228Z,84.15
2019-01-02T08:46:32.821Z,84.15
2019-01-02T08:47:24.233Z,83.77
2019-01-02T08:48:24.176Z,84.05
2019-01-02T08:49:31.745Z,83.63
2019-01-02T08:50:24.190Z,84.36
2019-01-02T08:51:31.745Z,84.25
2019-01-02T08:52:24.894Z,84.77
2019-01-02T08:53:31.701Z,84.36
2019-01-02T08:54:24.135Z,84.46
2019-01-02T08:55:24.120Z,83.94
2019-01-02T08:56:31.671Z,84.15
2019-01-02T08:57:24.134Z,84.36
2019-01-02T08:58:24.127Z,84.36
2019-01-02T08:59:31.617Z,84.05
2019-01-02T09:00:24.098Z,83.84
2019-01-02T09:01:31.622Z,84.15
2019-01-02T09:02:24.054Z,83.63
2019-01-02T09:03:24.044Z,83.94
2019-01-02T09:04:31.584Z,84.00
2019-01-02T09:05:24.048Z,83.63
2019-01-02T09:06:31.642Z,84.36
2019-01-02T09:07:24.000Z,84.31
2019-01-02T09:08:31.520Z,84.11
2019-01-02T09:09:23.991Z,84.11
2019-01-02T09:10:31.511Z,83.07
2019-01-02T09:11:23.984Z,83.22
2019-01-02T09:12:23.953Z,84.00
2019-01-02T09:13:31.516Z,83.59
2019-01-02T09:14:23.959Z,83.28
2019-01-02T09:15:31.460Z,83.07
2019-01-02T09:16:23.886Z,84.31
2019-01-02T09:17:23.920Z,83.90
2019-01-02T09:18:31.430Z,83.80
2019-01-02T09:19:23.875Z,83.38
2019-01-02T09:20:23.847Z,83.80
2019-01-02T09:21:31.379Z,84.52
2019-01-02T09:22:23.876Z,84.00
2019-01-02T09:23:31.388Z,84.11
2019-01-02T09:24:23.886Z,83.59
2019-01-02T09:25:23.800Z,83.17
2019-01-02T09:26:31.339Z,83.38
2019-01-02T09:27:23.831Z,84.21
2019-01-02T09:28:23.745Z,83.07
2019-01-02T09:29:23.760Z,83.17
2019-01-02T09:30:23.747Z,83.17
2019-01-02T09:31:23.722Z,82.65
2019-01-02T09:32:31.294Z,82.86
2019-01-02T09:33:23.723Z,83.38
2019-01-02T09:34:31.255Z,83.28
2019-01-02T09:35:23.710Z,83.17
2019-01-02T09:36:23.683Z,82.86
2019-01-02T09:37:23.688Z,83.59
2019-01-02T09:38:23.682Z,83.07
2019-01-02T09:39:31.195Z,82.76
2019-01-02T09:40:23.664Z,82.51
2019-01-02T09:41:23.622Z,82.41
2019-01-02T09:42:23.606Z,82.34
2019-01-02T09:43:24.713Z,81.93
2019-01-02T09:44:23.634Z,82.65
2019-01-02T09:45:23.608Z,81.99
2019-01-02T09:46:24.066Z,82.72
2019-01-02T09:48:24.548Z,82.72
2019-01-02T09:49:23.527Z,82.62
2019-01-02T09:50:23.514Z,82.62
2019-01-02T09:51:23.500Z,82.51
2019-01-02T09:52:23.500Z,83.55
2019-01-02T09:53:23.507Z,82.82
2019-01-02T09:54:23.469Z,82.51
2019-01-02T09:56:39.250Z,82.82
2019-01-02T09:57:39.192Z,84.07
2019-01-02T09:58:39.247Z,82.79
2019-01-02T09:59:39.115Z,82.79
2019-01-02T10:00:39.116Z,82.79
2019-01-02T10:01:39.252Z,82.89
2019-01-02T10:03:48.898Z,82.06
2019-01-02T10:05:58.606Z,82.17
2019-01-02T10:07:06.154Z,82.37
2019-01-02T10:07:58.559Z,82.06
2019-01-02T10:08:58.623Z,81.65
2019-01-02T10:09:58.506Z,81.92
2019-01-02T10:10:58.482Z,81.44
2019-01-02T10:11:58.485Z,82.06
2019-01-02T10:12:58.459Z,81.71
2019-01-02T10:13:58.484Z,81.61
2019-01-02T10:14:58.450Z,81.82
2019-01-02T10:23:24.109Z,81.92
2019-01-02T10:24:23.928Z,82.03
2019-01-02T10:25:23.963Z,81.51
2019-01-02T10:26:23.857Z,81.92
2019-01-02T10:27:23.860Z,81.20
2019-01-02T10:28:23.834Z,81.20
2019-01-02T10:29:23.846Z,80.57
2019-01-02T10:30:23.822Z,80.78
2019-01-02T10:31:23.801Z,80.99
2019-01-02T10:32:23.790Z,80.78
2019-01-02T10:33:23.789Z,80.99
2019-01-02T10:34:23.773Z,81.09
2019-01-02T10:35:31.409Z,81.20
2019-01-02T10:36:23.805Z,80.05
2019-01-02T10:37:23.851Z,80.05
2019-01-02T10:38:23.746Z,80.88
2019-01-02T10:39:23.718Z,80.78
2019-01-02T10:40:23.742Z,80.99
2019-01-02T10:41:23.701Z,80.47
2019-01-02T10:42:23.686Z,80.54
2019-01-02T10:43:23.683Z,80.68
2019-01-02T10:44:23.662Z,80.64
2019-01-02T10:45:23.670Z,79.40
2019-01-02T10:46:23.639Z,80.85
2019-01-02T10:47:23.657Z,80.43
2019-01-02T10:48:23.622Z,80.12
2019-01-02T10:49:23.614Z,79.98
2019-01-02T10:50:23.631Z,80.60
2019-01-02T10:51:23.599Z,79.77
2019-01-02T10:52:23.631Z,79.57
2019-01-02T10:53:23.572Z,80.08
2019-01-02T10:54:23.563Z,80.40
2019-01-02T10:55:25.195Z,79.67
2019-01-02T10:56:23.538Z,79.05
2019-01-02T10:57:23.528Z,79.57
2019-01-02T10:58:23.557Z,78.70
2019-01-02T10:59:23.507Z,79.26
2019-01-02T11:00:23.516Z,78.95
2019-01-02T11:01:23.485Z,78.85
2019-01-02T11:02:23.488Z,78.12
2019-01-02T11:03:23.467Z,78.02
2019-01-02T11:04:23.465Z,77.70
2019-01-02T11:05:23.466Z,77.60
2019-01-02T11:06:23.466Z,78.22
2019-01-02T11:07:23.420Z,77.95
2019-01-02T11:08:23.415Z,78.05
2019-01-02T11:09:23.407Z,79.36
2019-01-02T11:10:23.393Z,79.40
2019-01-02T11:11:23.414Z,78.74
2019-01-02T11:12:23.371Z,78.88
2019-01-02T11:13:23.359Z,79.26
2019-01-02T11:14:23.351Z,78.22
2019-01-02T11:15:23.364Z,78.33
2019-01-02T11:16:23.357Z,78.50
2019-01-02T11:17:23.318Z,79.53
2019-01-02T11:18:23.308Z,79.74
2019-01-02T11:19:23.300Z,78.50
2019-01-02T11:20:23.297Z,77.84
2019-01-02T11:21:23.297Z,76.91
2019-01-02T11:22:23.266Z,77.43
2019-01-02T11:23:23.256Z,77.22
2019-01-02T11:24:23.286Z,76.81
2019-01-02T11:25:23.244Z,76.84
2019-01-02T11:26:23.249Z,77.05
2019-01-02T11:27:23.212Z,77.36
2019-01-02T11:28:23.199Z,77.67
2019-01-02T11:29:23.207Z,77.36
2019-01-02T11:30:23.194Z,76.01
2019-01-02T11:31:23.176Z,77.26
2019-01-02T11:32:23.179Z,77.60
2019-01-02T11:33:23.179Z,77.77
2019-01-02T11:34:23.143Z,77.26
2019-01-02T11:35:23.131Z,76.53
2019-01-02T11:36:23.127Z,76.95
2019-01-02T11:37:23.133Z,76.22
2019-01-02T11:38:23.109Z,76.74
2019-01-02T11:39:23.099Z,76.26
2019-01-02T11:40:23.078Z,76.36
2019-01-02T11:41:23.069Z,75.63
2019-01-02T11:42:23.087Z,76.12
2019-01-02T11:43:23.046Z,75.91
2019-01-02T11:44:23.036Z,77.39
2019-01-02T11:45:23.029Z,76.98
2019-01-02T11:46:23.058Z,77.36
2019-01-02T11:47:23.043Z,76.26
2019-01-02T11:48:22.998Z,76.05
2019-01-02T11:49:22.982Z,77.36
2019-01-02T11:50:22.978Z,76.36
2019-01-02T11:51:22.981Z,77.91
2019-01-02T11:52:22.973Z,77.67
2019-01-02T11:53:22.940Z,77.05
2019-01-02T11:54:22.939Z,77.98
2019-01-02T11:55:22.928Z,77.91
2019-01-02T11:56:22.934Z,77.81
2019-01-02T11:57:22.924Z,75.95
2019-01-02T11:58:22.893Z,76.46
2019-01-02T11:59:22.879Z,76.46
2019-01-02T12:00:22.881Z,76.88
2019-01-02T12:01:22.861Z,76.64
2019-01-02T12:02:22.853Z,76.12
2019-01-02T12:03:22.864Z,76.53
2019-01-02T12:04:22.829Z,76.64
2019-01-02T12:05:22.829Z,77.15
2019-01-02T12:06:22.811Z,76.12
2019-01-02T12:07:22.796Z,75.81
2019-01-02T12:08:22.806Z,76.95
2019-01-02T12:09:22.801Z,77.26
2019-01-02T12:10:22.764Z,77.05
2019-01-02T12:11:22.757Z,76.60
2019-01-02T12:12:22.744Z,77.01
2019-01-02T12:13:22.758Z,77.22
2019-01-02T12:14:22.851Z,76.81
2019-01-02T12:15:22.717Z,77.33
2019-01-02T12:16:22.709Z,76.60
2019-01-02T12:17:22.689Z,77.22
2019-01-02T12:18:22.724Z,76.87
2019-01-02T12:19:22.672Z,76.15
2019-01-02T12:20:22.662Z,75.78
2019-01-02T12:21:22.654Z,75.12
2019-01-02T12:22:22.656Z,75.36
2019-01-02T12:23:22.629Z,75.22
2019-01-02T12:24:22.639Z,74.71
2019-01-02T12:25:22.605Z,74.91
2019-01-02T12:26:22.599Z,75.32
2019-01-02T12:27:22.586Z,75.12
2019-01-02T12:28:22.579Z,75.01
2019-01-02T12:31:01.929Z,74.71
2019-01-02T12:32:01.922Z,74.60
2019-01-02T12:34:12.384Z,73.67
2019-01-02T12:35:19.844Z,73.85
2019-01-02T12:36:12.148Z,73.85
2019-01-02T12:38:58.358Z,72.81
2019-01-02T12:39:58.420Z,71.37
2019-01-02T12:40:58.338Z,71.98
2019-01-02T12:43:18.925Z,71.92
2019-01-02T12:46:16.065Z,71.06
2019-01-02T12:48:37.626Z,71.26
2019-01-02T12:51:40.117Z,70.03
2019-01-02T12:55:32.702Z,70.23
2019-01-02T12:56:32.095Z,71.67
2019-01-02T12:58:43.926Z,71.78
2019-01-02T13:02:18.248Z,67.44
2019-01-02T13:04:28.904Z,66.61
2019-01-02T13:07:27.292Z,69.09
2019-01-02T13:11:21.532Z,68.78
2019-01-02T13:14:35.318Z,68.27
2019-01-02T13:19:27.168Z,68.61
2019-01-02T13:20:27.072Z,69.64
2019-01-02T13:21:27.090Z,69.54
2019-01-02T13:22:27.023Z,69.64
2019-01-02T13:23:26.969Z,68.51
2019-01-02T13:24:26.959Z,69.02
2019-01-02T13:25:26.978Z,69.64
2019-01-02T13:26:26.953Z,70.26
2019-01-02T13:27:26.917Z,70.67
2019-01-02T13:28:26.907Z,70.57
2019-01-02T13:29:26.896Z,69.64
2019-01-02T13:30:26.899Z,70.06
2019-01-02T13:31:26.917Z,72.02
2019-01-02T13:32:26.872Z,71.71
2019-01-02T13:33:26.862Z,71.61
2019-01-02T13:34:26.844Z,72.26
2019-01-02T13:35:26.854Z,72.64
2019-01-02T13:36:26.845Z,73.36
2019-01-02T13:37:26.809Z,71.53
2019-01-02T13:38:26.810Z,71.33
2019-01-02T13:39:26.795Z,72.57
2019-01-02T13:40:26.885Z,72.57
2019-01-02T13:41:26.839Z,72.67
2019-01-02T13:42:26.906Z,72.60
2019-01-02T13:43:26.753Z,72.81
2019-01-02T13:44:27.590Z,73.29
2019-01-02T13:45:27.692Z,73.81
2019-01-02T13:46:26.782Z,73.64
2019-01-02T13:47:26.739Z,73.54
2019-01-02T13:48:26.829Z,73.02
2019-01-02T13:49:26.684Z,73.33
2019-01-02T13:50:26.679Z,72.81
2019-01-02T13:51:26.719Z,72.81
2019-01-02T13:52:26.682Z,72.08
2019-01-02T13:53:26.642Z,72.81
2019-01-02T13:54:26.656Z,72.60
2019-01-02T13:55:26.629Z,71.88
2019-01-02T13:56:26.614Z,72.29
2019-01-02T13:57:26.630Z,71.78
2019-01-02T13:58:26.626Z,71.57
2019-01-02T13:59:26.587Z,71.98
2019-01-02T14:00:26.617Z,71.98
2019-01-02T14:01:26.563Z,71.57
2019-01-02T14:02:26.584Z,72.08
2019-01-02T14:03:26.545Z,72.60
2019-01-02T14:04:26.542Z,72.39
2019-01-02T14:05:26.529Z,73.12
2019-01-02T14:06:26.540Z,73.64
2019-01-02T14:07:26.722Z,73.02
2019-01-02T14:08:26.580Z,72.91
2019-01-02T14:09:26.574Z,71.67
2019-01-02T14:10:26.498Z,71.57
2019-01-02T14:11:26.519Z,72.08
2019-01-02T14:12:26.498Z,70.74
2019-01-02T14:13:26.571Z,70.64
2019-01-02T14:14:26.536Z,70.84
2019-01-02T14:15:26.499Z,71.33
2019-01-02T14:16:26.455Z,69.67
2019-01-02T14:17:26.443Z,70.40
2019-01-02T14:18:26.442Z,70.61
2019-01-02T14:19:26.394Z,70.61
2019-01-02T14:20:26.414Z,70.71
2019-01-02T14:21:26.401Z,70.61
2019-01-02T14:22:26.424Z,70.40
2019-01-02T14:23:26.380Z,70.19
2019-01-02T14:24:26.353Z,68.33
2019-01-02T14:25:26.395Z,69.29
2019-01-02T14:26:26.344Z,69.88
2019-01-02T14:27:26.378Z,69.26
2019-01-02T14:28:26.314Z,68.98
2019-01-02T14:29:26.474Z,69.16
2019-01-02T14:30:26.350Z,69.88
2019-01-02T14:31:26.319Z,69.71
2019-01-02T14:32:26.255Z,70.50
2019-01-02T14:33:26.383Z,71.26
2019-01-02T14:34:26.271Z,71.53
2019-01-02T14:35:26.301Z,71.74
2019-01-02T14:36:26.193Z,72.60
2019-01-02T14:37:26.177Z,72.39
2019-01-02T14:38:26.215Z,71.78
2019-01-02T14:39:26.158Z,71.98
2019-01-02T14:40:26.160Z,71.98
2019-01-02T14:41:26.134Z,71.57
2019-01-02T14:42:26.125Z,72.71
2019-01-02T14:43:26.144Z,71.36
2019-01-02T14:44:26.125Z,71.98
2019-01-02T14:45:26.100Z,71.98
2019-01-02T14:46:26.092Z,72.60
2019-01-02T14:47:26.082Z,71.78
2019-01-02T14:48:26.092Z,71.98
2019-01-02T14:49:26.102Z,71.47
2019-01-02T14:50:26.064Z,72.60
2019-01-02T14:51:26.036Z,72.29
2019-01-02T14:52:26.029Z,71.98
2019-01-02T14:53:26.158Z,72.19
2019-01-02T14:54:26.168Z,71.78
2019-01-02T14:55:25.991Z,71.98
2019-01-02T14:56:25.975Z,71.15
2019-01-02T14:57:25.980Z,71.57
2019-01-02T14:58:25.985Z,71.36
2019-01-02T14:59:26.003Z,71.15
2019-01-02T15:00:25.959Z,72.60
2019-01-02T15:01:26.006Z,72.71
2019-01-02T15:02:25.972Z,72.91
2019-01-02T15:03:25.993Z,73.33
2019-01-02T15:04:26.001Z,72.29
2019-01-02T15:05:25.906Z,73.12
2019-01-02T15:06:25.892Z,71.88
2019-01-02T15:07:25.873Z,71.98
2019-01-02T15:08:25.862Z,71.29
2019-01-02T15:09:25.847Z,71.91
2019-01-02T15:10:27.423Z,72.19
2019-01-02T15:11:25.862Z,72.85
2019-01-02T15:12:25.823Z,73.05
2019-01-02T15:13:25.805Z,72.22
2019-01-02T15:14:25.832Z,72.02
2019-01-02T15:15:25.849Z,72.81
2019-01-02T15:16:25.773Z,73.33
2019-01-02T15:17:25.763Z,72.74
2019-01-02T15:18:25.751Z,72.64
2019-01-02T15:19:25.750Z,72.64
2019-01-02T15:20:25.747Z,73.46
2019-01-02T15:21:25.738Z,73.46
2019-01-02T15:22:25.703Z,73.15
2019-01-02T15:23:25.689Z,73.36
2019-01-02T15:24:25.680Z,73.39
2019-01-02T15:25:25.692Z,72.88
2019-01-02T15:26:25.671Z,74.32
2019-01-02T15:27:25.647Z,74.63
2019-01-02T15:28:25.643Z,73.50
2019-01-02T15:29:25.634Z,75.15
2019-01-02T15:30:27.411Z,74.74
2019-01-02T15:31:25.620Z,74.02
2019-01-02T15:32:25.592Z,74.32
2019-01-02T15:33:25.634Z,74.74
2019-01-02T15:34:25.581Z,75.50
2019-01-02T15:35:25.562Z,74.95
2019-01-02T15:36:25.576Z,74.74
2019-01-02T15:37:25.542Z,75.57
2019-01-02T15:38:25.540Z,75.40
2019-01-02T15:39:25.521Z,74.98
2019-01-02T15:40:25.529Z,74.05
2019-01-02T15:41:25.528Z,75.50
2019-01-02T15:42:25.489Z,75.19
2019-01-02T15:43:25.486Z,76.23
2019-01-02T15:44:25.471Z,75.71
2019-01-02T15:45:25.467Z,76.12
2019-01-02T15:46:25.451Z,75.32
2019-01-02T15:47:25.457Z,75.84
2019-01-02T15:48:25.427Z,76.02
2019-01-02T15:49:25.416Z,75.95
2019-01-02T15:50:25.405Z,76.12
2019-01-02T15:51:25.395Z,75.02
2019-01-02T15:52:25.403Z,75.95
2019-01-02T15:53:25.376Z,76.05
2019-01-02T15:54:25.362Z,75.32
2019-01-02T15:55:25.349Z,76.36
2019-01-02T15:56:25.341Z,74.81
2019-01-02T15:57:25.358Z,76.26
2019-01-02T15:58:25.383Z,75.95
2019-01-02T15:59:25.313Z,76.57
2019-01-02T16:00:25.393Z,76.09
2019-01-02T16:01:25.381Z,76.40
2019-01-02T16:02:25.345Z,76.50
2019-01-02T16:03:25.327Z,76.19
2019-01-02T16:04:25.301Z,76.09
2019-01-02T16:05:25.341Z,76.09
2019-01-02T16:06:25.245Z,75.78
2019-01-02T16:07:25.270Z,76.50
2019-01-02T16:08:25.329Z,76.81
2019-01-02T16:09:25.235Z,75.98
2019-01-02T16:10:25.376Z,75.67
2019-01-02T16:11:25.278Z,75.46
2019-01-02T16:12:25.236Z,75.98
2019-01-02T16:13:25.316Z,76.29
2019-01-02T16:14:25.233Z,76.40
2019-01-02T16:15:25.311Z,77.23
2019-01-02T16:16:25.275Z,77.33
2019-01-02T16:17:25.285Z,76.71
2019-01-02T16:18:25.224Z,76.71
2019-01-02T16:19:25.157Z,77.44
2019-01-02T16:20:25.190Z,76.09
2019-01-02T16:21:25.224Z,76.71
2019-01-02T16:22:25.137Z,77.12
2019-01-02T16:23:25.108Z,75.57
2019-01-02T16:24:25.171Z,76.61
2019-01-02T16:25:25.170Z,77.26
2019-01-02T16:26:25.195Z,77.12
2019-01-02T16:27:25.102Z,77.58
2019-01-02T16:28:25.138Z,76.09
2019-01-02T16:29:25.051Z,76.12
2019-01-02T16:30:25.089Z,76.02